George Town, Cayman Islands
Current Conditions -  °F | °C
As of 10:00 AM on Wednesday 22 Oct 2014 (Local Time) from MWCR Reporting Station
Few Clouds Few Clouds  
Wind Chill: 81°   Ceiling: Unl
Heat Index: 88°   Visibility: 6mi
Dew Point: 79°   Wind: 9mph
Humidity: 94%   Direction: 150°SSE
Pressure: 29.88"   Gusts: NA
Location:  19.28°N, 81.39°W
Report Text: MWCR 221500Z 15008KT 9999 FEW014 27/26 Q1012 NOSIG
Loading
Personal Weather Stations






























Interactive Weather Map New forecast layout! Learn more

10-Day Weather Forecast

Advertisements
Track Severe Weather on mobile